Terminal Aerodrome Forecast
Issued by NWS New Orleans/Baton Rouge, LA

Home | Current Version | Previous Version | Text Only | Print | Product List | Glossary On
Versions: 1 2 3 4 5 6 7 8 9 10 11 12 13 14 15 16 17 18 19 20
000
FTUS44 KLIX 191747
TAFBTR
TAF
KBTR 191747Z 1918/2018 21009KT 6SM -RA BR FEW009 BKN050 OVC100
     FM192100 20008KT P6SM OVC025
      TEMPO 1921/1924 2SM -TSRA OVC007CB
     FM200300 21005KT P6SM BKN008
     FM200900 22004KT 1/2SM FG BKN003
     FM201530 21006KT P6SM SCT025=

USA.gov is the U.S. government's official web portal to all federal, state and local government web resources and services.